Time;durP1;ratioP1;P1;durP2;ratioP2;P2;SDS_P1;SDS_P2;PMS_P1;PMS_P2;Temp;Humidity;BMP_temperature;BMP_pressure;BME280_temperature;BME280_humidity;BME280_pressure;Samples;Min_cycle;Max_cycle;Signal;HPM_P1;HPM_P2
2021/10/23 00:00:01;;;;;;;26.85;7.70;;;;;;;;;;5073340;28;20017;-66
2021/10/23 00:02:27;;;;;;;21.40;7.20;;;;;;;;;;5074483;28;20493;-66
2021/10/23 00:04:53;;;;;;;33.42;9.30;;;;;;;;;;5074525;28;20013;-66
2021/10/23 00:07:20;;;;;;;22.05;6.68;;;;;;;;;;5074250;28;20073;-66
2021/10/23 00:09:46;;;;;;;22.77;7.82;;;;;;;;;;5074241;28;20042;-67
2021/10/23 00:12:11;;;;;;;24.55;8.23;;;;;;;;;;5073355;28;20021;-66
2021/10/23 00:14:37;;;;;;;23.00;8.68;;;;;;;;;;5073132;28;20384;-66
2021/10/23 00:17:04;;;;;;;22.92;7.72;;;;;;;;;;5072820;28;20077;-67
2021/10/23 00:19:30;;;;;;;23.00;8.32;;;;;;;;;;5074756;28;20021;-66
2021/10/23 00:21:56;;;;;;;23.42;8.02;;;;;;;;;;5072897;28;20039;-66
2021/10/23 00:24:22;;;;;;;25.65;10.07;;;;;;;;;;5073178;28;20313;-66
2021/10/23 00:26:48;;;;;;;24.98;7.03;;;;;;;;;;5073768;28;20415;-67
2021/10/23 00:29:14;;;;;;;22.63;7.03;;;;;;;;;;5074049;28;20020;-67
2021/10/23 00:31:40;;;;;;;22.38;7.25;;;;;;;;;;5074064;28;20020;-67
2021/10/23 00:34:06;;;;;;;26.55;8.15;;;;;;;;;;5072656;28;20385;-68
2021/10/23 00:36:32;;;;;;;23.25;7.63;;;;;;;;;;5072683;28;20055;-68
2021/10/23 00:38:58;;;;;;;24.58;7.82;;;;;;;;;;5074031;28;20046;-66
2021/10/23 00:41:24;;;;;;;24.95;8.32;;;;;;;;;;5071519;28;20028;-67
2021/10/23 00:43:50;;;;;;;26.75;8.77;;;;;;;;;;5072781;28;20019;-66
2021/10/23 00:46:16;;;;;;;22.10;7.53;;;;;;;;;;5072239;28;20031;-67
2021/10/23 00:48:42;;;;;;;23.13;7.70;;;;;;;;;;5073675;28;20111;-67
2021/10/23 00:51:14;;;;;;;26.40;9.07;;;;;;;;;;5072325;28;20491;-67
2021/10/23 00:53:40;;;;;;;24.02;8.60;;;;;;;;;;5072629;28;20399;-67
2021/10/23 00:56:06;;;;;;;39.25;13.07;;;;;;;;;;5072022;28;20418;-66
2021/10/23 00:58:33;;;;;;;28.65;8.85;;;;;;;;;;5072207;28;20353;-66
2021/10/23 01:00:59;;;;;;;24.73;7.97;;;;;;;;;;5073349;28;20028;-68
2021/10/23 01:03:25;;;;;;;23.70;8.10;;;;;;;;;;5073363;28;20013;-67
2021/10/23 01:05:51;;;;;;;23.23;8.27;;;;;;;;;;5073072;28;20016;-68
2021/10/23 01:08:17;;;;;;;25.48;8.20;;;;;;;;;;5071773;28;20082;-66
2021/10/23 01:10:43;;;;;;;28.20;9.80;;;;;;;;;;5073178;28;20070;-67
2021/10/23 01:13:10;;;;;;;22.02;8.63;;;;;;;;;;5071788;28;20016;-68
2021/10/23 01:15:37;;;;;;;23.85;8.27;;;;;;;;;;5071413;28;20441;-66
2021/10/23 01:18:04;;;;;;;25.13;8.52;;;;;;;;;;5073133;28;20473;-66
2021/10/23 01:20:31;;;;;;;26.60;9.70;;;;;;;;;;5071898;28;20472;-67
2021/10/23 01:22:57;;;;;;;25.30;9.18;;;;;;;;;;5071983;28;20384;-67
2021/10/23 01:25:24;;;;;;;24.00;9.20;;;;;;;;;;5072836;28;20020;-67
2021/10/23 01:27:51;;;;;;;31.73;9.33;;;;;;;;;;5071229;28;20017;-68
2021/10/23 01:30:18;;;;;;;24.52;8.93;;;;;;;;;;5072810;28;20036;-66
2021/10/23 01:32:44;;;;;;;26.58;10.30;;;;;;;;;;5073207;28;20052;-67
2021/10/23 01:35:10;;;;;;;25.70;9.68;;;;;;;;;;5073071;28;20059;-66
2021/10/23 01:37:41;;;;;;;28.38;10.13;;;;;;;;;;5070851;28;20060;-66
2021/10/23 01:40:08;;;;;;;25.27;9.55;;;;;;;;;;5071126;28;20016;-67
2021/10/23 01:42:34;;;;;;;31.33;10.00;;;;;;;;;;5071136;28;20017;-67
2021/10/23 01:45:00;;;;;;;30.55;10.65;;;;;;;;;;5072316;28;20023;-66
2021/10/23 01:47:26;;;;;;;27.30;9.93;;;;;;;;;;5072018;28;20024;-67
2021/10/23 01:49:52;;;;;;;25.40;11.10;;;;;;;;;;5072426;28;20027;-67
2021/10/23 01:52:18;;;;;;;27.80;10.52;;;;;;;;;;5072018;28;20020;-67
2021/10/23 01:54:44;;;;;;;26.58;9.93;;;;;;;;;;5070829;28;20417;-67
2021/10/23 01:57:10;;;;;;;34.42;15.50;;;;;;;;;;5071903;28;20020;-67
2021/10/23 01:59:36;;;;;;;36.20;12.95;;;;;;;;;;5070904;28;20443;-68
2021/10/23 02:02:03;;;;;;;33.88;12.45;;;;;;;;;;5070970;28;20028;-66
2021/10/23 02:04:29;;;;;;;30.20;12.95;;;;;;;;;;5071011;28;20496;-68
2021/10/23 02:06:55;;;;;;;29.42;12.43;;;;;;;;;;5072168;28;20078;-67
2021/10/23 02:09:21;;;;;;;32.10;13.02;;;;;;;;;;5073182;28;20020;-67
2021/10/23 02:11:48;;;;;;;32.97;13.27;;;;;;;;;;5071934;28;20031;-67
2021/10/23 02:14:14;;;;;;;37.08;16.52;;;;;;;;;;5071954;28;20064;-67
2021/10/23 02:16:40;;;;;;;35.88;13.82;;;;;;;;;;5070475;28;20119;-66
2021/10/23 02:19:06;;;;;;;36.20;14.35;;;;;;;;;;5070653;28;20124;-66
2021/10/23 02:21:32;;;;;;;34.65;14.68;;;;;;;;;;5071899;28;20086;-66
2021/10/23 02:23:58;;;;;;;39.22;16.85;;;;;;;;;;5071989;28;20460;-67
2021/10/23 02:26:24;;;;;;;39.03;15.90;;;;;;;;;;5070319;28;20055;-68
2021/10/23 02:28:50;;;;;;;40.13;15.50;;;;;;;;;;5071926;28;20017;-66
2021/10/23 02:31:16;;;;;;;35.83;15.20;;;;;;;;;;5071978;28;20051;-66
2021/10/23 02:33:42;;;;;;;40.63;18.65;;;;;;;;;;5071780;28;20024;-66
2021/10/23 02:36:08;;;;;;;40.00;16.02;;;;;;;;;;5070245;28;20020;-67
2021/10/23 02:38:34;;;;;;;38.40;16.65;;;;;;;;;;5070552;28;20150;-66
2021/10/23 02:41:00;;;;;;;31.58;15.40;;;;;;;;;;5071821;28;20060;-66
2021/10/23 02:43:27;;;;;;;31.42;14.65;;;;;;;;;;5070597;28;20107;-67
2021/10/23 02:45:53;;;;;;;34.10;15.30;;;;;;;;;;5070249;28;20357;-66
2021/10/23 02:48:19;;;;;;;38.08;16.58;;;;;;;;;;5071530;28;20023;-66
2021/10/23 02:50:46;;;;;;;36.53;18.05;;;;;;;;;;5070088;28;20109;-66
2021/10/23 02:53:12;;;;;;;32.38;14.77;;;;;;;;;;5070328;28;20024;-66
2021/10/23 02:55:38;;;;;;;37.20;16.35;;;;;;;;;;5069881;28;20028;-67
2021/10/23 02:58:05;;;;;;;32.22;14.52;;;;;;;;;;5071280;28;20019;-67
2021/10/23 03:00:31;;;;;;;34.33;15.90;;;;;;;;;;5070467;28;20024;-67
2021/10/23 03:02:57;;;;;;;47.55;19.05;;;;;;;;;;5071406;28;20027;-67
2021/10/23 03:05:23;;;;;;;37.65;15.75;;;;;;;;;;5074325;28;20526;-67
2021/10/23 03:07:49;;;;;;;34.47;15.13;;;;;;;;;;5075339;28;20024;-66
2021/10/23 03:10:15;;;;;;;35.75;18.10;;;;;;;;;;5074798;28;20012;-65
2021/10/23 03:12:42;;;;;;;33.40;15.52;;;;;;;;;;5074560;28;20020;-66
2021/10/23 03:15:08;;;;;;;37.72;18.10;;;;;;;;;;5074374;28;20024;-67
2021/10/23 03:17:34;;;;;;;34.60;16.20;;;;;;;;;;5074152;28;20069;-66
2021/10/23 03:20:01;;;;;;;35.05;16.48;;;;;;;;;;5074244;28;20507;-66
2021/10/23 03:22:27;;;;;;;31.77;15.52;;;;;;;;;;5075453;28;20012;-67
2021/10/23 03:24:53;;;;;;;38.88;16.38;;;;;;;;;;5075499;28;20091;-67
2021/10/23 03:27:22;;;;;;;35.70;16.88;;;;;;;;;;5073947;28;20434;-67
2021/10/23 03:29:48;;;;;;;36.70;17.80;;;;;;;;;;5074436;28;20021;-67
2021/10/23 03:32:14;;;;;;;30.98;15.02;;;;;;;;;;5075286;28;20074;-67
2021/10/23 03:34:40;;;;;;;37.75;17.23;;;;;;;;;;5075550;28;20020;-67
2021/10/23 03:37:06;;;;;;;33.75;16.73;;;;;;;;;;5075214;28;20094;-67
2021/10/23 03:39:32;;;;;;;36.42;17.77;;;;;;;;;;5075493;28;20044;-66
2021/10/23 03:41:58;;;;;;;41.13;18.92;;;;;;;;;;5075380;28;20460;-68
2021/10/23 03:44:25;;;;;;;36.85;16.45;;;;;;;;;;5074159;28;20019;-66
2021/10/23 03:46:51;;;;;;;36.60;17.45;;;;;;;;;;5073687;28;20491;-66
2021/10/23 03:49:17;;;;;;;38.35;17.92;;;;;;;;;;5073358;28;20024;-67
2021/10/23 03:51:43;;;;;;;44.22;19.25;;;;;;;;;;5074793;28;20020;-66
2021/10/23 03:54:09;;;;;;;37.17;19.17;;;;;;;;;;5073770;28;20028;-67
2021/10/23 03:56:35;;;;;;;41.75;19.90;;;;;;;;;;5074663;28;20024;-67
2021/10/23 03:59:01;;;;;;;40.38;17.45;;;;;;;;;;5074733;28;20028;-66
2021/10/23 04:01:27;;;;;;;37.63;18.25;;;;;;;;;;5074853;28;20102;-67
2021/10/23 04:03:54;;;;;;;40.97;17.67;;;;;;;;;;5073398;28;20470;-67
2021/10/23 04:06:20;;;;;;;46.67;20.25;;;;;;;;;;5073230;28;20013;-67
2021/10/23 04:08:46;;;;;;;38.78;18.38;;;;;;;;;;5073053;28;20388;-66
2021/10/23 04:11:12;;;;;;;37.85;19.30;;;;;;;;;;5074632;28;20024;-67
2021/10/23 04:13:38;;;;;;;39.78;20.30;;;;;;;;;;5074691;28;20024;-67
2021/10/23 04:16:04;;;;;;;45.13;19.73;;;;;;;;;;5073681;28;20035;-66
2021/10/23 04:18:30;;;;;;;39.97;18.98;;;;;;;;;;5074149;28;20021;-67
2021/10/23 04:20:56;;;;;;;43.35;20.67;;;;;;;;;;5074144;28;20039;-67
2021/10/23 04:23:22;;;;;;;41.78;20.20;;;;;;;;;;5073154;28;20016;-66
2021/10/23 04:25:48;;;;;;;43.88;20.73;;;;;;;;;;5074297;28;20021;-67
2021/10/23 04:28:14;;;;;;;40.45;20.05;;;;;;;;;;5074254;28;20064;-67
2021/10/23 04:30:40;;;;;;;52.45;21.63;;;;;;;;;;5073236;28;20024;-69
2021/10/23 04:33:06;;;;;;;43.75;21.10;;;;;;;;;;5074539;28;20024;-67
2021/10/23 04:35:32;;;;;;;41.47;19.88;;;;;;;;;;5075056;28;20689;-66
2021/10/23 04:37:58;;;;;;;37.17;18.83;;;;;;;;;;5075177;28;20047;-67
2021/10/23 04:40:24;;;;;;;53.08;22.08;;;;;;;;;;5075192;28;20048;-67
2021/10/23 04:42:50;;;;;;;40.85;20.25;;;;;;;;;;5074463;28;20422;-67
2021/10/23 04:45:16;;;;;;;46.58;22.23;;;;;;;;;;5074306;28;20074;-67
2021/10/23 04:47:42;;;;;;;47.30;23.23;;;;;;;;;;5073660;28;20028;-67
2021/10/23 04:50:08;;;;;;;42.33;20.08;;;;;;;;;;5072485;28;20082;-67
2021/10/23 04:52:34;;;;;;;47.17;22.00;;;;;;;;;;5072816;28;20111;-67
2021/10/23 04:55:00;;;;;;;42.55;20.50;;;;;;;;;;5072826;28;20017;-68
2021/10/23 04:57:26;;;;;;;44.22;21.23;;;;;;;;;;5071902;28;20374;-65
2021/10/23 04:59:52;;;;;;;57.63;22.35;;;;;;;;;;5073224;28;20121;-67
2021/10/23 05:02:18;;;;;;;41.33;22.42;;;;;;;;;;5071904;28;20025;-65
2021/10/23 05:04:44;;;;;;;47.42;22.45;;;;;;;;;;5073138;28;20021;-67
2021/10/23 05:07:10;;;;;;;40.97;20.73;;;;;;;;;;5073012;28;20023;-67
2021/10/23 05:09:36;;;;;;;40.00;20.73;;;;;;;;;;5110594;22;20518;-68
2021/10/23 05:12:02;;;;;;;40.72;20.08;;;;;;;;;;5092490;28;20031;-68
2021/10/23 05:14:28;;;;;;;36.88;20.38;;;;;;;;;;5074363;28;20110;-67
2021/10/23 05:16:54;;;;;;;39.45;19.90;;;;;;;;;;5074174;28;20619;-68
2021/10/23 05:19:20;;;;;;;37.35;19.80;;;;;;;;;;5092457;28;20032;-68
2021/10/23 05:21:46;;;;;;;35.92;18.42;;;;;;;;;;5093537;28;20063;-67
2021/10/23 05:24:12;;;;;;;39.83;21.90;;;;;;;;;;5076257;28;20016;-66
2021/10/23 05:26:38;;;;;;;39.00;21.80;;;;;;;;;;5074479;28;20020;-67
2021/10/23 05:29:04;;;;;;;39.03;21.30;;;;;;;;;;5094290;28;20051;-68
2021/10/23 05:31:29;;;;;;;41.53;21.60;;;;;;;;;;5092771;28;20095;-68
2021/10/23 05:33:55;;;;;;;37.95;20.17;;;;;;;;;;5070991;28;20020;-68
2021/10/23 05:36:21;;;;;;;37.22;20.95;;;;;;;;;;5073811;28;20051;-68
2021/10/23 05:38:47;;;;;;;49.42;23.15;;;;;;;;;;5091986;28;20095;-68
2021/10/23 05:41:13;;;;;;;34.20;18.48;;;;;;;;;;5068293;28;20031;-68
2021/10/23 05:43:39;;;;;;;41.22;21.02;;;;;;;;;;5071671;28;20086;-67
2021/10/23 05:46:05;;;;;;;38.13;20.52;;;;;;;;;;5071194;28;20027;-67
2021/10/23 05:48:31;;;;;;;36.75;20.70;;;;;;;;;;5053480;28;20374;-67
2021/10/23 05:50:57;;;;;;;35.92;18.83;;;;;;;;;;5068529;28;20020;-68
2021/10/23 05:53:23;;;;;;;39.05;20.45;;;;;;;;;;5091638;28;20024;-67
2021/10/23 05:55:49;;;;;;;38.30;21.27;;;;;;;;;;5072820;28;20020;-68
2021/10/23 05:58:15;;;;;;;40.50;21.42;;;;;;;;;;5091410;28;20495;-68
2021/10/23 06:00:49;;;;;;;39.55;20.98;;;;;;;;;;5091448;28;20016;-67
2021/10/23 06:03:18;;;;;;;46.97;22.38;;;;;;;;;;5073289;28;20051;-68
2021/10/23 06:05:45;;;;;;;57.90;20.67;;;;;;;;;;5091056;28;20016;-68
2021/10/23 06:08:11;;;;;;;45.50;22.90;;;;;;;;;;5074596;28;20020;-68
2021/10/23 06:10:37;;;;;;;40.40;21.80;;;;;;;;;;5071081;28;20025;-67
2021/10/23 06:13:03;;;;;;;42.85;22.05;;;;;;;;;;5052944;28;20035;-68
2021/10/23 06:15:29;;;;;;;41.40;21.45;;;;;;;;;;5071415;28;20020;-68
2021/10/23 06:17:55;;;;;;;47.85;21.30;;;;;;;;;;5052716;28;20025;-68
2021/10/23 06:20:21;;;;;;;45.28;20.77;;;;;;;;;;5070838;28;20055;-67
2021/10/23 06:22:51;;;;;;;46.38;20.52;;;;;;;;;;5070629;28;20032;-68
2021/10/23 06:25:17;;;;;;;53.88;20.60;;;;;;;;;;5071041;28;20020;-67
2021/10/23 06:27:44;;;;;;;57.55;21.02;;;;;;;;;;5070682;28;20057;-67
2021/10/23 06:30:10;;;;;;;59.25;21.33;;;;;;;;;;5052855;28;20516;-67
2021/10/23 06:32:49;;;;;;;46.92;20.13;;;;;;;;;;5052829;28;20162;-66
2021/10/23 06:35:16;;;;;;;56.63;21.13;;;;;;;;;;5084391;28;20104;-66
2021/10/23 06:37:42;;;;;;;40.08;21.70;;;;;;;;;;5089949;28;20016;-66
2021/10/23 06:40:08;;;;;;;43.00;20.48;;;;;;;;;;5072592;28;20414;-66
2021/10/23 06:42:34;;;;;;;45.72;21.52;;;;;;;;;;5090940;28;20379;-67
2021/10/23 06:45:00;;;;;;;48.42;20.40;;;;;;;;;;5090942;28;20023;-67
2021/10/23 06:47:26;;;;;;;57.13;22.35;;;;;;;;;;5072507;28;20460;-67
2021/10/23 06:49:53;;;;;;;46.13;22.65;;;;;;;;;;5072659;28;20356;-67
2021/10/23 06:52:22;;;;;;;48.45;20.60;;;;;;;;;;5072736;28;20035;-67
2021/10/23 06:54:49;;;;;;;49.80;23.17;;;;;;;;;;5072933;28;20020;-67
2021/10/23 06:57:15;;;;;;;50.58;22.63;;;;;;;;;;5072614;28;20521;-67
2021/10/23 06:59:41;;;;;;;52.95;22.00;;;;;;;;;;5090808;28;20031;-67
2021/10/23 07:02:07;;;;;;;54.22;21.48;;;;;;;;;;5090751;28;20024;-68
2021/10/23 07:04:32;;;;;;;39.30;20.60;;;;;;;;;;5090854;28;20412;-67
2021/10/23 07:06:58;;;;;;;51.03;21.67;;;;;;;;;;5090489;28;20016;-61
2021/10/23 07:09:24;;;;;;;47.88;21.67;;;;;;;;;;5072652;28;20027;-67
2021/10/23 07:11:50;;;;;;;45.13;21.90;;;;;;;;;;5072914;28;20472;-68
2021/10/23 07:14:16;;;;;;;41.47;20.40;;;;;;;;;;5090924;28;20051;-68
2021/10/23 07:16:42;;;;;;;39.70;20.35;;;;;;;;;;5072518;28;20020;-68
2021/10/23 07:19:08;;;;;;;48.47;20.10;;;;;;;;;;5073149;28;20082;-70
2021/10/23 07:21:34;;;;;;;45.08;20.70;;;;;;;;;;5091113;28;20024;-70
2021/10/23 07:24:00;;;;;;;42.80;20.30;;;;;;;;;;5073162;28;20014;-70
2021/10/23 07:26:26;;;;;;;33.72;17.17;;;;;;;;;;5090839;28;20455;-70
2021/10/23 07:28:53;;;;;;;38.30;18.13;;;;;;;;;;5072596;28;20070;-69
2021/10/23 07:31:19;;;;;;;45.25;19.30;;;;;;;;;;5090655;28;20020;-70
2021/10/23 07:33:45;;;;;;;35.28;18.42;;;;;;;;;;5072312;28;20081;-70
2021/10/23 07:36:13;;;;;;;34.10;19.75;;;;;;;;;;5072253;28;20032;-70
2021/10/23 07:38:39;;;;;;;32.95;18.33;;;;;;;;;;5090966;28;20020;-70
2021/10/23 07:41:07;;;;;;;36.13;18.77;;;;;;;;;;5072655;28;20499;-70
2021/10/23 07:43:33;;;;;;;35.15;18.30;;;;;;;;;;5091209;28;20085;-70
2021/10/23 07:45:59;;;;;;;34.13;16.58;;;;;;;;;;5075700;28;20031;-69
2021/10/23 07:48:25;;;;;;;31.30;16.38;;;;;;;;;;5096937;28;20016;-71
2021/10/23 07:50:51;;;;;;;33.53;16.45;;;;;;;;;;5089909;28;20020;-71
2021/10/23 07:53:17;;;;;;;31.65;16.40;;;;;;;;;;5107051;28;20020;-69
2021/10/23 07:55:43;;;;;;;30.25;17.40;;;;;;;;;;5107459;28;20035;-67
2021/10/23 07:58:09;;;;;;;33.55;19.13;;;;;;;;;;5096891;28;20028;-67
2021/10/23 08:00:35;;;;;;;32.65;17.25;;;5.90;99.90;;;;;;5094468;28;20450;-68
2021/10/23 08:03:01;;;;;;;29.40;16.92;;;6.10;99.90;;;;;;5093077;28;20035;-68
2021/10/23 08:05:35;;;;;;;30.88;17.38;;;6.00;99.90;;;;;;5074459;28;20532;-69
2021/10/23 08:08:02;;;;;;;31.40;16.35;;;6.00;99.90;;;;;;5092194;28;20020;-68
2021/10/23 08:10:30;;;;;;;31.52;17.00;;;6.00;99.90;;;;;;5075263;28;20520;-68
2021/10/23 08:12:56;;;;;;;30.02;15.88;;;6.10;99.90;;;;;;5075149;28;20028;-68
2021/10/23 08:15:25;;;;;;;30.77;16.58;;;6.10;99.90;;;;;;5093469;28;20016;-68
2021/10/23 08:17:51;;;;;;;;;;;6.10;99.90;;;;;;5093955;28;20020;-66
2021/10/23 08:20:17;;;;;;;31.25;16.77;;;;;;;;;;5093355;28;19900;-67
2021/10/23 08:22:43;;;;;;;32.42;16.73;;;;;;;;;;5074354;28;20484;-68
2021/10/23 08:25:10;;;;;;;32.40;16.75;;;;;;;;;;5074990;28;20039;-68
2021/10/23 08:27:40;;;;;;;30.65;17.08;;;;;;;;;;5074826;28;20432;-69
2021/10/23 08:30:07;;;;;;;26.92;15.68;;;;;;;;;;5075445;28;20024;-70
2021/10/23 08:32:34;;;;;;;48.10;17.58;;;;;;;;;;5075054;28;20027;-69
2021/10/23 08:35:00;;;;;;;30.10;16.33;;;;;;;;;;5075176;28;20031;-69
2021/10/23 08:37:26;;;;;;;30.88;16.73;;;;;;;;;;5074863;28;20027;-69
2021/10/23 08:39:52;;;;;;;31.08;16.60;;;;;;;;;;5074846;28;20024;-69
2021/10/23 08:42:19;;;;;;;29.52;16.73;;;;;;;;;;5075034;28;20162;-67
2021/10/23 08:44:45;;;;;;;29.55;16.30;;;;;;;;;;5075168;28;20020;-69
2021/10/23 08:47:11;;;;;;;28.98;15.40;;;;;;;;;;5074106;28;20020;-69
2021/10/23 08:49:38;;;;;;;30.77;14.65;;;;;;;;;;5074263;28;20020;-67
2021/10/23 08:52:05;;;;;;;26.33;14.10;;;;;;;;;;5074321;28;20032;-68
2021/10/23 08:54:34;;;;;;;26.02;13.98;;;;;;;;;;5074012;28;20081;-68
2021/10/23 08:57:00;;;;;;;25.52;14.27;;;;;;;;;;5073886;28;20125;-69
2021/10/23 08:59:27;;;;;;;26.38;13.77;;;;;;;;;;5074136;28;20056;-68
2021/10/23 09:01:56;;;;;;;29.83;13.95;;;;;;;;;;5073372;28;20028;-69
2021/10/23 09:04:22;;;;;;;28.30;14.23;;;;;;;;;;5074122;28;20020;-69
2021/10/23 09:06:48;;;;;;;26.60;13.65;;;;;;;;;;5073743;28;20107;-68
2021/10/23 09:09:15;;;;;;;26.55;14.15;;;;;;;;;;5073697;28;20028;-68
2021/10/23 09:11:42;;;;;;;26.88;14.00;;;;;;;;;;5073910;28;20095;-69
2021/10/23 09:14:26;;;;;;;27.65;12.90;;;;;;;;;;5073720;28;20054;-68
2021/10/23 09:17:12;;;;;;;25.42;11.30;;;;;;;;;;5073616;28;20020;-68
2021/10/23 09:19:48;;;;;;;24.05;12.10;;;;;;;;;;5073615;28;20615;-69
2021/10/23 09:22:28;;;;;;;26.48;11.30;;;;;;;;;;5072938;28;20053;-68
2021/10/23 09:25:12;;;;;;;26.60;11.73;;;;;;;;;;5073656;28;20021;-68
2021/10/23 09:27:48;;;;;;;24.65;11.65;;;;;;;;;;5073456;28;20494;-69
2021/10/23 09:30:14;;;;;;;24.13;12.30;;;;;;;;;;5073340;28;20031;-68
2021/10/23 09:32:40;;;;;;;25.98;12.25;;;;;;;;;;5073391;28;20028;-67
2021/10/23 09:35:18;;;;;;;23.10;10.38;;;;;;;;;;5073157;28;20031;-69
2021/10/23 09:37:45;;;;;;;26.10;10.85;;;;;;;;;;5072881;28;20063;-67
2021/10/23 09:40:12;;;;;;;23.33;10.63;;;;;;;;;;5072873;28;20071;-67
2021/10/23 09:42:38;;;;;;;22.27;10.65;;;;;;;;;;5091288;28;20060;-67
2021/10/23 09:45:05;;;;;;;22.20;10.70;;;;;;;;;;5091175;28;20024;-68
2021/10/23 09:47:33;;;;;;;22.02;11.05;;;;;;;;;;5091218;28;20098;-70
2021/10/23 09:50:12;;;;;;;26.00;11.00;;;;;;;;;;5091391;28;20072;-70
2021/10/23 09:53:04;;;;;;;21.75;9.98;;;;;;;;;;5090330;28;20282;-71
2021/10/23 09:55:34;;;;;;;26.20;10.07;;;;;;;;;;4715884;28;10000571;-70
2021/10/23 09:58:16;;;;;;;24.38;9.90;;;;;;;;;;5045176;28;20370;-71
2021/10/23 10:00:43;;;;;;;21.27;10.35;;;;;;;;;;5050063;28;20134;-70
2021/10/23 10:03:10;;;;;;;24.20;11.20;;;;;;;;;;5050557;28;20027;-70
2021/10/23 10:05:36;;;;;;;22.13;9.80;;;;;;;;;;5068201;28;20027;-69
2021/10/23 10:08:06;;;;;;;22.05;10.02;;;;;;;;;;5068195;28;20104;-70
2021/10/23 10:10:34;;;;;;;22.25;10.25;;;;;;;;;;5068068;28;20028;-70
2021/10/23 10:13:00;;;;;;;23.20;9.77;;;;;;;;;;5050909;28;20078;-70
2021/10/23 10:15:29;;;;;;;21.98;9.85;;;;;;;;;;5068431;28;20025;-69
2021/10/23 10:17:55;;;;;;;21.20;10.00;;;;;;;;;;5068361;28;20090;-69
2021/10/23 10:20:22;;;;;;;25.02;10.68;;;;;;;;;;5068735;28;20465;-69
2021/10/23 10:22:54;;;;;;;23.10;9.05;;;;;;;;;;5068654;28;20112;-70
2021/10/23 10:25:24;;;;;;;22.08;9.40;;;;;;;;;;5050506;28;20013;-69
2021/10/23 10:27:54;;;;;;;23.60;9.82;;;;;;;;;;5050324;28;20107;-69
2021/10/23 10:30:23;;;;;;;23.25;10.20;;;;;;;;;;5050833;28;20020;-70
2021/10/23 10:32:49;;;;;;;22.30;10.82;;;;;;;;;;5068780;28;20028;-70
2021/10/23 10:35:25;;;;;;;20.75;10.23;;;;;;;;;;5081499;28;20020;-71
2021/10/23 10:38:43;;;;;;;19.35;9.80;;;;;;;;;;5070552;28;20016;-70
2021/10/23 10:43:18;;;;;;;21.25;10.50;;;;;;;;;;5088874;28;20096;-70
2021/10/23 10:45:48;;;;;;;19.92;10.35;;;;;;;;;;5070075;28;20676;-71
2021/10/23 10:48:36;;;;;;;19.85;9.43;;;;;;;;;;5088183;28;20103;-68
2021/10/23 10:51:02;;;;;;;;;;;;;;;;;;5089401;28;20044;-71
2021/10/23 10:53:28;;;;;;;22.08;10.43;;;;;;;;;;5088927;28;19978;-70
2021/10/23 10:55:55;;;;;;;21.23;10.07;;;;;;;;;;5070193;28;20073;-70
2021/10/23 10:58:40;;;;;;;22.20;11.13;;;;;;;;;;5088523;28;20560;-70
2021/10/23 11:01:10;;;;;;;21.73;12.55;;;;;;;;;;5088736;28;20024;-71
2021/10/23 11:03:39;;;;;;;21.08;12.15;;;;;;;;;;5070527;28;20069;-70
2021/10/23 11:06:24;;;;;;;30.25;11.50;;;;;;;;;;5088103;28;20341;-71
2021/10/23 11:09:10;;;;;;;21.60;11.77;;;;;;;;;;5069680;28;20024;-71
2021/10/23 11:11:46;;;;;;;19.65;12.50;;;;;;;;;;5085156;22;20056;-67
2021/10/23 11:14:21;;;;;;;;;;;;;;;;;;;;;
2021/10/23 11:16:51;;;;;;;22.17;12.13;;;;;;;;;;5087652;28;20547;-65
2021/10/23 11:19:23;;;;;;;22.98;12.77;;;;;;;;;;5069865;28;20024;-65
2021/10/23 11:21:53;;;;;;;22.92;13.23;;;;;;;;;;5088056;28;20070;-65
2021/10/23 11:24:20;;;;;;;21.00;13.23;;;;;;;;;;5089174;28;20103;-65
2021/10/23 11:26:53;;;;;;;21.58;12.80;;;;;;;;;;5075141;28;20824;-65
2021/10/23 11:29:26;;;;;;;22.23;12.07;;;;;;;;;;5096811;28;20027;-65
2021/10/23 11:31:53;;;;;;;20.75;12.45;;;;;;;;;;5078429;28;20023;-65
2021/10/23 11:34:21;;;;;;;22.60;12.07;;;;;;;;;;5095238;28;20020;-66
2021/10/23 11:36:57;;;;;;;24.10;12.87;;;;;;;;;;5077085;28;20093;-65
2021/10/23 11:39:23;;;;;;;19.40;13.25;;;;;;;;;;5077063;28;20266;-66
2021/10/23 11:41:49;;;;;;;20.42;11.98;;;;;;;;;;5077067;28;20463;-65
2021/10/23 11:44:15;;;;;;;20.70;12.38;;;;;;;;;;5094764;28;20043;-66
2021/10/23 11:46:41;;;;;;;22.40;12.45;;;;;;;;;;5094929;28;20040;-65
2021/10/23 11:49:07;;;;;;;19.58;11.93;;;;;;;;;;5076714;28;20491;-65
2021/10/23 11:51:34;;;;;;;21.33;12.20;;;;;;;;;;5076957;28;20020;-65
2021/10/23 11:54:01;;;;;;;21.13;12.45;;;;;;;;;;5094702;28;20042;-66
2021/10/23 11:56:27;;;;;;;23.50;12.85;;;;;;;;;;5094582;28;20028;-65
2021/10/23 11:58:58;;;;;;;22.80;12.90;;;;;;;;;;5094407;28;20036;-64
2021/10/23 12:01:25;;;;;;;20.73;11.75;;;;;;;;;;5076374;28;20077;-64
2021/10/23 12:03:57;;;;;;;19.67;11.82;;;;;;;;;;5094795;28;20020;-64
2021/10/23 12:06:24;;;;;;;19.95;10.32;;;;;;;;;;5094211;28;20068;-64
2021/10/23 12:09:18;;;;;;;17.67;11.13;;;;;;;;;;5094285;28;20047;-64
2021/10/23 12:11:44;;;;;;;19.35;11.15;;;;;;;;;;5091094;28;20063;-65
2021/10/23 12:14:14;;;;;;;19.05;11.43;;;;;;;;;;5094710;28;20486;-65
2021/10/23 12:16:41;;;;;;;17.13;10.60;;;;;;;;;;5076161;28;20020;-67
2021/10/23 12:19:13;;;;;;;18.15;11.07;;;;;;;;;;5094056;28;20016;-65
2021/10/23 12:21:39;;;;;;;19.45;11.18;;;;;;;;;;5094616;28;20097;-64
2021/10/23 12:24:13;;;;;;;17.77;10.55;;;;;;;;;;5094058;28;20024;-64
2021/10/23 12:26:39;;;;;;;18.45;11.02;;;;;;;;;;5077823;28;20117;-65
2021/10/23 12:29:06;;;;;;;22.50;10.10;;;;;;;;;;5096661;28;20008;-64
2021/10/23 12:31:51;;;;;;;16.23;9.98;;;;;;;;;;5102208;28;20168;-64
2021/10/23 12:34:17;;;;;;;19.35;9.95;;;;;;;;;;5095543;28;20127;-64
2021/10/23 12:36:57;;;;;;;20.20;10.88;;;;;;;;;;5106144;28;20091;-64
2021/10/23 12:39:24;;;;;;;17.27;9.80;;;;;;;;;;5095715;28;20034;-64
2021/10/23 12:41:50;;;;;;;19.70;10.48;;;;;;;;;;5113927;28;20076;-64
2021/10/23 12:44:18;;;;;;;18.65;10.45;;;;;;;;;;5112134;28;20057;-65
2021/10/23 12:46:44;;;;;;;16.63;9.95;;;;;;;;;;5092894;28;20016;-64
2021/10/23 12:49:10;;;;;;;17.30;9.65;;;;;;;;;;5093115;28;20020;-65
2021/10/23 12:51:36;;;;;;;18.25;9.45;;;;;;;;;;5093153;28;20020;-63
2021/10/23 12:54:02;;;;;;;21.50;11.10;;;;;;;;;;5093272;28;20028;-63
2021/10/23 12:56:28;;;;;;;19.30;10.77;;;;;;;;;;5093189;28;20031;-64
2021/10/23 12:58:54;;;;;;;17.83;9.70;;;;;;;;;;5093363;28;20470;-64
2021/10/23 13:01:21;;;;;;;16.10;10.48;;;;;;;;;;5075025;28;20016;-64
2021/10/23 13:03:47;;;;;;;17.13;9.70;;;;;;;;;;5093249;28;20077;-64
2021/10/23 13:06:13;;;;;;;17.20;10.80;;;;;;;;;;5092736;28;20024;-64
2021/10/23 13:08:41;;;;;;;16.75;11.30;;;;;;;;;;5092322;28;20099;-64
2021/10/23 13:11:07;;;;;;;18.67;11.73;;;;;;;;;;5091486;28;20030;-67
2021/10/23 13:13:36;;;;;;;19.88;11.30;;;;;;;;;;5073690;28;20536;-64
2021/10/23 13:16:02;;;;;;;20.00;11.35;;;;;;;;;;5092410;28;20463;-64
2021/10/23 13:18:34;;;;;;;18.90;10.63;;;;;;;;;;5092525;28;20012;-64
2021/10/23 13:21:00;;;;;;;17.88;10.90;;;;;;;;;;5089977;28;20095;-64
2021/10/23 13:23:26;;;;;;;19.63;11.00;;;;;;;;;;5074162;28;20024;-65
2021/10/23 13:25:53;;;;;;;17.30;10.95;;;;;;;;;;5092338;28;20475;-65
2021/10/23 13:28:19;;;;;;;21.63;12.18;;;;;;;;;;5092342;28;20379;-65
2021/10/23 13:30:45;;;;;;;19.35;11.30;;;;;;;;;;5073998;28;20483;-64
2021/10/23 13:33:11;;;;;;;19.20;10.52;;;;;;;;;;5092806;28;20117;-65
2021/10/23 13:35:37;;;;;;;18.98;10.27;;;;;;;;;;5073699;28;20417;-65
2021/10/23 13:38:04;;;;;;;19.25;11.02;;;;;;;;;;5073992;28;20476;-64
2021/10/23 13:40:30;;;;;;;16.95;10.38;;;;;;;;;;5092874;28;20024;-65
2021/10/23 13:42:56;;;;;;;17.42;10.48;;;;;;;;;;5074811;28;20383;-65
2021/10/23 13:45:22;;;;;;;19.80;10.52;;;;;;;;;;5074085;28;20024;-65
2021/10/23 13:47:48;;;;;;;19.42;10.48;;;;;;;;;;5073137;28;20104;-65
2021/10/23 13:50:14;;;;;;;17.63;10.90;;;;;;;;;;5089172;28;20052;-64
2021/10/23 13:52:40;;;;;;;16.85;10.30;;;;;;;;;;5073780;28;20016;-64
2021/10/23 13:55:07;;;;;;;17.77;11.40;;;;;;;;;;5073248;28;20067;-65
2021/10/23 13:57:33;;;;;;;19.90;11.02;;;;;;;;;;5073646;28;20118;-65
2021/10/23 13:59:59;;;;;;;17.10;10.45;;;;;;;;;;5074296;28;20482;-65
2021/10/23 14:02:25;;;;;;;21.40;11.02;;;;;;;;;;5074124;28;20055;-65
2021/10/23 14:04:51;;;;;;;18.08;10.65;;;;;;;;;;5074052;28;20365;-65
2021/10/23 14:07:17;;;;;;;19.30;10.63;;;;;;;;;;5091556;28;20523;-65
2021/10/23 14:09:43;;;;;;;17.85;10.70;;;;;;;;;;5073815;28;20119;-66
2021/10/23 14:12:09;;;;;;;16.23;10.27;;;;;;;;;;5073904;28;20122;-65
2021/10/23 14:14:35;;;;;;;21.27;10.68;;;;;;;;;;5073898;28;20506;-65
2021/10/23 14:17:02;;;;;;;16.55;10.40;;;;;;;;;;5073735;28;20088;-66
2021/10/23 14:19:28;;;;;;;16.05;9.70;;;;;;;;;;5073908;28;20028;-65
2021/10/23 14:21:54;;;;;;;16.95;10.13;;;;;;;;;;5073519;28;20024;-65